createdAt,value
2022-10-16T00:03:14.637Z,2.09
2022-10-16T00:08:40.165Z,0.25
2022-10-16T00:14:01.854Z,0.75
2022-10-16T00:19:26.477Z,0.40
2022-10-16T00:24:53.266Z,0.45
2022-10-16T00:30:20.464Z,1.26
2022-10-16T00:35:42.251Z,0.91
2022-10-16T00:41:07.712Z,1.46
2022-10-16T00:46:31.236Z,0.66
2022-10-16T00:51:53.261Z,2.25
2022-10-16T00:57:17.617Z,0.79
2022-10-16T01:02:43.587Z,1.59
2022-10-16T01:08:12.223Z,2.38
2022-10-16T01:13:39.483Z,2.62
2022-10-16T01:19:07.582Z,1.79
2022-10-16T01:24:36.627Z,3.38
2022-10-16T01:30:03.788Z,3.47
2022-10-16T01:35:30.350Z,2.67
2022-10-16T01:40:58.521Z,3.32
2022-10-16T01:46:25.195Z,2.85
2022-10-16T01:51:49.852Z,5.32
2022-10-16T01:57:16.610Z,3.40
2022-10-16T02:02:43.618Z,3.60
2022-10-16T02:08:06.717Z,3.64
2022-10-16T02:13:35.115Z,3.29
2022-10-16T02:19:01.237Z,4.77
2022-10-16T02:24:26.256Z,3.07
2022-10-16T02:29:52.619Z,3.31
2022-10-16T02:35:14.635Z,4.08
2022-10-16T02:40:36.692Z,3.41
2022-10-16T02:46:01.608Z,3.20
2022-10-16T02:51:29.338Z,3.55
2022-10-16T02:56:53.947Z,2.00
2022-10-16T03:02:19.408Z,2.45
2022-10-16T03:07:47.085Z,1.72
2022-10-16T03:13:14.992Z,2.65
2022-10-16T03:18:42.201Z,1.88
2022-10-16T03:24:08.200Z,4.92
2022-10-16T03:29:36.337Z,3.09
2022-10-16T03:35:02.665Z,3.88
2022-10-16T03:40:27.647Z,2.70
2022-10-16T03:45:54.752Z,3.08
2022-10-16T03:51:16.684Z,1.73
2022-10-16T03:56:44.005Z,2.15
2022-10-16T04:02:09.260Z,2.58
2022-10-16T04:07:36.932Z,3.56
2022-10-16T04:13:04.013Z,2.54
2022-10-16T04:18:31.022Z,2.90
2022-10-16T04:23:57.024Z,3.89
2022-10-16T04:29:24.013Z,1.61
2022-10-16T04:34:52.238Z,4.08
2022-10-16T04:40:17.658Z,2.94
2022-10-16T04:45:39.741Z,2.88
2022-10-16T04:51:06.875Z,3.64
2022-10-16T04:56:31.689Z,2.67
2022-10-16T05:01:56.814Z,2.35
2022-10-16T05:07:18.996Z,2.80
2022-10-16T05:12:46.682Z,2.87
2022-10-16T05:18:12.960Z,2.32
2022-10-16T05:23:39.539Z,2.59
2022-10-16T05:29:01.537Z,2.59
2022-10-16T05:34:27.866Z,3.17
2022-10-16T05:39:52.790Z,2.01
2022-10-16T05:45:19.255Z,2.69
2022-10-16T05:50:44.241Z,2.11
2022-10-16T05:56:10.121Z,1.90
2022-10-16T06:01:38.359Z,3.46
2022-10-16T06:07:05.763Z,1.67
2022-10-16T06:12:28.182Z,2.08
2022-10-16T06:17:56.283Z,2.17
2022-10-16T06:23:20.802Z,2.37
2022-10-16T06:28:42.234Z,2.65
2022-10-16T06:34:03.719Z,4.44
2022-10-16T06:39:27.025Z,3.29
2022-10-16T06:44:51.916Z,3.64
2022-10-16T06:50:19.152Z,2.71
2022-10-16T06:55:46.907Z,4.49
2022-10-16T07:01:13.425Z,5.48
2022-10-16T07:06:39.545Z,5.37
2022-10-16T07:12:12.242Z,4.46
2022-10-16T07:17:39.431Z,4.53
2022-10-16T07:23:03.602Z,4.07
2022-10-16T07:28:28.128Z,2.95
2022-10-16T07:33:51.186Z,2.90
2022-10-16T07:39:17.903Z,2.83
2022-10-16T07:44:44.848Z,4.22
2022-10-16T07:50:09.628Z,2.80
2022-10-16T07:55:34.263Z,3.24
2022-10-16T08:00:56.050Z,2.40
2022-10-16T08:06:27.568Z,2.52
2022-10-16T08:11:50.216Z,4.04
2022-10-16T08:17:18.876Z,2.85
2022-10-16T08:22:45.457Z,2.39
2022-10-16T08:28:12.639Z,1.87
2022-10-16T08:33:34.768Z,2.22
2022-10-16T08:38:58.869Z,2.60
2022-10-16T08:44:30.102Z,3.58
2022-10-16T08:50:20.256Z,7.27
2022-10-16T08:55:48.322Z,6.54
2022-10-16T09:01:12.568Z,3.87
2022-10-16T09:06:36.865Z,4.23
2022-10-16T09:12:06.007Z,5.58
2022-10-16T09:17:29.308Z,4.67
2022-10-16T09:22:56.429Z,3.62
2022-10-16T09:28:33.182Z,2.46
2022-10-16T09:33:57.967Z,1.76
2022-10-16T09:39:22.349Z,4.10
2022-10-16T09:44:45.876Z,2.53
2022-10-16T09:50:13.102Z,1.88
2022-10-16T09:55:43.873Z,1.86
2022-10-16T10:01:12.705Z,1.19
2022-10-16T10:06:38.322Z,1.15
2022-10-16T10:12:06.279Z,1.00
2022-10-16T10:17:36.148Z,0.42
2022-10-16T10:23:07.349Z,0.37
2022-10-16T10:28:36.686Z,1.63
2022-10-16T10:34:06.624Z,0.68
2022-10-16T10:39:38.548Z,0.64
2022-10-16T10:45:06.046Z,0.80
2022-10-16T10:50:41.111Z,0.63
2022-10-16T10:56:08.873Z,1.27
2022-10-16T11:01:39.441Z,1.65
2022-10-16T11:07:05.825Z,0.91
2022-10-16T11:12:32.128Z,0.76
2022-10-16T11:17:57.389Z,0.99
2022-10-16T11:23:23.372Z,2.05
2022-10-16T11:28:50.553Z,0.37
2022-10-16T11:34:13.138Z,0.51
2022-10-16T11:39:39.425Z,1.07
2022-10-16T11:45:07.206Z,0.87
2022-10-16T11:50:33.416Z,1.20
2022-10-16T11:56:01.480Z,1.73
2022-10-16T12:01:29.696Z,1.22
2022-10-16T12:06:57.767Z,1.11
2022-10-16T12:12:24.593Z,3.12
2022-10-16T12:17:50.208Z,0.77
2022-10-16T12:23:15.027Z,4.74
2022-10-16T12:28:43.785Z,0.91
2022-10-16T12:34:10.275Z,0.96
2022-10-16T12:39:41.368Z,1.75
2022-10-16T12:45:04.428Z,0.73
2022-10-16T12:50:44.609Z,2.52
2022-10-16T12:56:09.286Z,2.94
2022-10-16T13:01:31.589Z,1.61
2022-10-16T13:07:01.962Z,2.60
2022-10-16T13:12:37.738Z,2.54
2022-10-16T13:18:18.516Z,1.21
2022-10-16T13:23:41.335Z,0.94
2022-10-16T13:29:08.826Z,5.35
2022-10-16T13:34:35.804Z,1.12
2022-10-16T13:40:07.105Z,2.01
2022-10-16T13:45:36.375Z,2.69
2022-10-16T13:51:04.671Z,4.89
2022-10-16T13:56:32.518Z,1.17
2022-10-16T14:02:00.062Z,1.40
2022-10-16T14:07:28.727Z,2.48
2022-10-16T14:12:55.730Z,0.79
2022-10-16T14:18:17.971Z,1.76
2022-10-16T14:23:40.271Z,1.35
2022-10-16T14:29:08.944Z,3.62
2022-10-16T14:34:36.466Z,1.80
2022-10-16T14:40:03.961Z,2.61
2022-10-16T14:45:31.397Z,2.60
2022-10-16T14:50:57.665Z,1.42
2022-10-16T14:56:22.994Z,2.69
2022-10-16T15:01:47.806Z,4.83
2022-10-16T15:07:14.599Z,1.48
2022-10-16T15:12:42.425Z,1.63
2022-10-16T15:18:04.420Z,2.63
2022-10-16T15:28:56.371Z,1.47
2022-10-16T15:34:23.580Z,1.52
2022-10-16T15:39:52.013Z,1.58
2022-10-16T15:45:22.576Z,1.06
2022-10-16T15:50:51.078Z,2.24
2022-10-16T15:56:16.092Z,1.88
2022-10-16T16:01:47.820Z,1.23
2022-10-16T16:07:15.230Z,6.85
2022-10-16T16:12:39.132Z,2.98
2022-10-16T16:18:04.043Z,3.36
2022-10-16T16:23:25.847Z,1.55
2022-10-16T16:28:50.604Z,3.65
2022-10-16T16:34:17.259Z,2.21
2022-10-16T16:39:42.114Z,2.07
2022-10-16T16:45:04.179Z,1.67
2022-10-16T16:50:27.434Z,2.39
2022-10-16T17:01:24.009Z,3.42
2022-10-16T17:06:49.024Z,4.59
2022-10-16T17:12:17.682Z,2.26
2022-10-16T17:17:44.181Z,3.68
2022-10-16T17:23:08.391Z,2.16
2022-10-16T17:28:32.846Z,5.30
2022-10-16T17:34:02.749Z,3.78
2022-10-16T17:39:24.693Z,2.96
2022-10-16T17:44:52.376Z,4.97
2022-10-16T17:50:17.492Z,4.12
2022-10-16T17:55:43.155Z,2.87
2022-10-16T18:01:06.746Z,3.69
2022-10-16T18:06:35.335Z,3.32
2022-10-16T18:11:59.333Z,2.51
2022-10-16T18:17:21.481Z,5.64
2022-10-16T18:22:49.275Z,3.59
2022-10-16T18:28:39.974Z,4.03
2022-10-16T18:34:02.654Z,4.79
2022-10-16T18:39:24.599Z,2.47
2022-10-16T18:44:52.677Z,2.22
2022-10-16T18:50:13.027Z,2.37
2022-10-16T18:55:35.599Z,3.37
2022-10-16T19:00:59.905Z,2.70
2022-10-16T19:06:27.921Z,4.75
2022-10-16T19:11:56.326Z,4.65
2022-10-16T19:17:24.022Z,5.73
2022-10-16T19:22:52.000Z,2.67
2022-10-16T19:28:13.416Z,3.19
2022-10-16T19:33:41.361Z,3.98
2022-10-16T19:39:09.705Z,6.83
2022-10-16T19:44:35.267Z,5.05
2022-10-16T19:49:57.206Z,7.65
2022-10-16T19:55:21.610Z,12.06
2022-10-16T20:00:43.635Z,7.60
2022-10-16T20:06:09.579Z,5.87
2022-10-16T20:11:33.523Z,9.10
2022-10-16T20:17:00.141Z,5.94
2022-10-16T20:22:27.952Z,5.28
2022-10-16T20:27:52.863Z,4.18
2022-10-16T20:33:24.449Z,4.36
2022-10-16T20:38:52.383Z,4.37
2022-10-16T20:44:19.582Z,3.69
2022-10-16T20:49:44.626Z,2.87
2022-10-16T20:55:10.445Z,3.57
2022-10-16T21:00:32.299Z,5.07
2022-10-16T21:06:00.107Z,6.50
2022-10-16T21:11:25.268Z,6.15
2022-10-16T21:16:51.410Z,4.87
2022-10-16T21:22:17.760Z,3.95
2022-10-16T21:27:42.465Z,4.45
2022-10-16T21:33:08.866Z,4.70
2022-10-16T21:38:33.517Z,5.85
2022-10-16T21:44:01.539Z,8.45
2022-10-16T21:49:29.259Z,5.12
2022-10-16T21:54:54.253Z,5.76
2022-10-16T22:00:20.569Z,4.78
2022-10-16T22:05:48.017Z,3.19
2022-10-16T22:11:13.706Z,5.23
2022-10-16T22:16:35.552Z,3.39
2022-10-16T22:22:02.588Z,3.74
2022-10-16T22:27:30.836Z,4.39
2022-10-16T22:32:55.831Z,3.11
2022-10-16T22:38:22.660Z,4.55
2022-10-16T22:43:48.290Z,4.35
2022-10-16T22:49:13.225Z,3.63
2022-10-16T22:54:40.142Z,5.72
2022-10-16T23:00:03.621Z,3.27
2022-10-16T23:05:31.418Z,2.80
2022-10-16T23:10:59.165Z,4.21
2022-10-16T23:16:23.540Z,1.90
2022-10-16T23:21:52.666Z,4.35
2022-10-16T23:27:20.792Z,6.10
2022-10-16T23:32:50.071Z,3.21
2022-10-16T23:38:13.815Z,2.88
2022-10-16T23:43:37.376Z,3.66
2022-10-16T23:49:01.781Z,6.15
2022-10-16T23:54:28.339Z,2.86
2022-10-16T23:59:53.186Z,5.04
